sensor_id;sensor_type;location;lat;lon;timestamp;pressure;altitude;pressure_sealevel;temperature;humidity
33155;BME280;19511;42.682;23.332;2023-07-13T00:02:02;95412.41;;;21.05;100.00
33155;BME280;19511;42.682;23.332;2023-07-13T00:04:28;95415.69;;;21.03;100.00
33155;BME280;19511;42.682;23.332;2023-07-13T00:06:54;95358.94;;;20.62;100.00
33155;BME280;19511;42.682;23.332;2023-07-13T00:09:23;95416.81;;;20.97;100.00
33155;BME280;19511;42.682;23.332;2023-07-13T00:11:54;95366.56;;;20.62;100.00
33155;BME280;19511;42.682;23.332;2023-07-13T00:14:20;95418.69;;;20.91;100.00
33155;BME280;19511;42.682;23.332;2023-07-13T00:16:45;95417.78;;;20.84;100.00
33155;BME280;19511;42.682;23.332;2023-07-13T00:19:12;95355.34;;;20.52;100.00
33155;BME280;19511;42.682;23.332;2023-07-13T00:21:38;95403.69;;;20.94;100.00
33155;BME280;19511;42.682;23.332;2023-07-13T00:24:06;95384.53;;;20.74;100.00
33155;BME280;19511;42.682;23.332;2023-07-13T00:26:32;95391.41;;;20.73;100.00
33155;BME280;19511;42.682;23.332;2023-07-13T00:28:58;95401.22;;;20.77;100.00
33155;BME280;19511;42.682;23.332;2023-07-13T00:31:24;95365.34;;;20.44;100.00
33155;BME280;19511;42.682;23.332;2023-07-13T00:33:50;95382.06;;;20.57;100.00
33155;BME280;19511;42.682;23.332;2023-07-13T00:36:15;95400.94;;;20.66;100.00
33155;BME280;19511;42.682;23.332;2023-07-13T00:38:41;95398.28;;;20.62;100.00
33155;BME280;19511;42.682;23.332;2023-07-13T00:41:06;95397.81;;;20.54;100.00
33155;BME280;19511;42.682;23.332;2023-07-13T00:43:32;95361.19;;;20.30;100.00
33155;BME280;19511;42.682;23.332;2023-07-13T00:48:30;95356.63;;;20.23;100.00
33155;BME280;19511;42.682;23.332;2023-07-13T00:50:58;95350.72;;;20.21;100.00
33155;BME280;19511;42.682;23.332;2023-07-13T00:53:27;95393.75;;;20.55;100.00
33155;BME280;19511;42.682;23.332;2023-07-13T00:55:55;95403.44;;;20.54;100.00
33155;BME280;19511;42.682;23.332;2023-07-13T00:58:22;95399.22;;;20.50;100.00
33155;BME280;19511;42.682;23.332;2023-07-13T01:00:48;95352.13;;;20.08;100.00
33155;BME280;19511;42.682;23.332;2023-07-13T01:03:15;95401.25;;;20.40;100.00
33155;BME280;19511;42.682;23.332;2023-07-13T01:05:40;95404.69;;;20.44;100.00
33155;BME280;19511;42.682;23.332;2023-07-13T01:08:06;95390.16;;;20.36;100.00
33155;BME280;19511;42.682;23.332;2023-07-13T01:10:32;95370.53;;;20.27;100.00
33155;BME280;19511;42.682;23.332;2023-07-13T01:13:09;95395.00;;;20.45;100.00
33155;BME280;19511;42.682;23.332;2023-07-13T01:18:00;95351.34;;;20.16;100.00
33155;BME280;19511;42.682;23.332;2023-07-13T01:20:26;95388.16;;;20.37;100.00
33155;BME280;19511;42.682;23.332;2023-07-13T01:22:54;95394.06;;;20.39;100.00
33155;BME280;19511;42.682;23.332;2023-07-13T01:25:20;95388.16;;;20.37;100.00
33155;BME280;19511;42.682;23.332;2023-07-13T01:27:46;95389.72;;;20.29;100.00
33155;BME280;19511;42.682;23.332;2023-07-13T01:30:12;95326.84;;;19.80;100.00
33155;BME280;19511;42.682;23.332;2023-07-13T01:32:42;95375.38;;;20.17;100.00
33155;BME280;19511;42.682;23.332;2023-07-13T01:35:12;95387.25;;;20.21;100.00
33155;BME280;19511;42.682;23.332;2023-07-13T01:37:38;95395.34;;;20.19;100.00
33155;BME280;19511;42.682;23.332;2023-07-13T01:40:05;95383.78;;;20.08;100.00
33155;BME280;19511;42.682;23.332;2023-07-13T01:42:30;95380.53;;;20.00;100.00
33155;BME280;19511;42.682;23.332;2023-07-13T01:45:00;95387.38;;;19.99;100.00
33155;BME280;19511;42.682;23.332;2023-07-13T01:47:25;95380.19;;;19.98;100.00
33155;BME280;19511;42.682;23.332;2023-07-13T01:49:51;95382.84;;;20.02;100.00
33155;BME280;19511;42.682;23.332;2023-07-13T01:52:18;95384.09;;;20.01;100.00
33155;BME280;19511;42.682;23.332;2023-07-13T01:54:43;95390.66;;;19.98;100.00
33155;BME280;19511;42.682;23.332;2023-07-13T01:57:17;95385.03;;;19.98;100.00
33155;BME280;19511;42.682;23.332;2023-07-13T01:59:42;95383.47;;;19.97;100.00
33155;BME280;19511;42.682;23.332;2023-07-13T02:02:11;95388.78;;;19.95;100.00
33155;BME280;19511;42.682;23.332;2023-07-13T02:04:44;95399.09;;;19.88;100.00
33155;BME280;19511;42.682;23.332;2023-07-13T02:07:12;95396.28;;;19.88;100.00
33155;BME280;19511;42.682;23.332;2023-07-13T02:09:40;95344.41;;;19.43;100.00
33155;BME280;19511;42.682;23.332;2023-07-13T02:12:07;95404.38;;;19.86;100.00
33155;BME280;19511;42.682;23.332;2023-07-13T02:14:33;95393.72;;;19.81;100.00
33155;BME280;19511;42.682;23.332;2023-07-13T02:17:02;95381.22;;;19.64;100.00
33155;BME280;19511;42.682;23.332;2023-07-13T02:19:32;95407.44;;;19.70;100.00
33155;BME280;19511;42.682;23.332;2023-07-13T02:21:57;95397.94;;;19.77;100.00
33155;BME280;19511;42.682;23.332;2023-07-13T02:24:26;95403.69;;;19.73;100.00
33155;BME280;19511;42.682;23.332;2023-07-13T02:26:52;95405.41;;;19.70;100.00
33155;BME280;19511;42.682;23.332;2023-07-13T02:29:21;95339.22;;;19.23;100.00
33155;BME280;19511;42.682;23.332;2023-07-13T02:31:47;95400.88;;;19.64;100.00
33155;BME280;19511;42.682;23.332;2023-07-13T02:34:12;95413.19;;;19.66;100.00
33155;BME280;19511;42.682;23.332;2023-07-13T02:36:38;95354.97;;;19.30;100.00
33155;BME280;19511;42.682;23.332;2023-07-13T02:39:04;95411.75;;;19.62;100.00
33155;BME280;19511;42.682;23.332;2023-07-13T02:41:30;95415.50;;;19.58;100.00
33155;BME280;19511;42.682;23.332;2023-07-13T02:43:58;95348.09;;;19.21;100.00
33155;BME280;19511;42.682;23.332;2023-07-13T02:46:33;95401.28;;;19.44;100.00
33155;BME280;19511;42.682;23.332;2023-07-13T02:48:58;95412.19;;;19.41;100.00
33155;BME280;19511;42.682;23.332;2023-07-13T02:51:24;95350.66;;;18.97;100.00
33155;BME280;19511;42.682;23.332;2023-07-13T02:53:50;95411.88;;;19.39;100.00
33155;BME280;19511;42.682;23.332;2023-07-13T02:56:15;95349.25;;;18.92;100.00
33155;BME280;19511;42.682;23.332;2023-07-13T02:58:40;95420.13;;;19.34;100.00
33155;BME280;19511;42.682;23.332;2023-07-13T03:01:09;95414.81;;;19.36;100.00
33155;BME280;19511;42.682;23.332;2023-07-13T03:03:38;95363.72;;;18.91;100.00
33155;BME280;19511;42.682;23.332;2023-07-13T03:06:07;95416.63;;;19.20;100.00
33155;BME280;19511;42.682;23.332;2023-07-13T03:08:33;95426.00;;;19.27;100.00
33155;BME280;19511;42.682;23.332;2023-07-13T03:11:08;95424.91;;;19.24;100.00
33155;BME280;19511;42.682;23.332;2023-07-13T03:13:36;95425.69;;;19.24;100.00
33155;BME280;19511;42.682;23.332;2023-07-13T03:16:02;95369.09;;;18.85;100.00
33155;BME280;19511;42.682;23.332;2023-07-13T03:18:28;95423.81;;;19.21;100.00
33155;BME280;19511;42.682;23.332;2023-07-13T03:21:02;95375.03;;;18.87;100.00
33155;BME280;19511;42.682;23.332;2023-07-13T03:23:27;95430.81;;;19.26;100.00
33155;BME280;19511;42.682;23.332;2023-07-13T03:26:17;95431.00;;;19.32;100.00
33155;BME280;19511;42.682;23.332;2023-07-13T03:28:43;95426.03;;;19.36;100.00
33155;BME280;19511;42.682;23.332;2023-07-13T03:31:15;95427.31;;;19.44;100.00
33155;BME280;19511;42.682;23.332;2023-07-13T03:33:41;95437.00;;;19.52;100.00
33155;BME280;19511;42.682;23.332;2023-07-13T03:36:09;95430.47;;;19.55;100.00
33155;BME280;19511;42.682;23.332;2023-07-13T03:38:34;95376.13;;;19.21;100.00
33155;BME280;19511;42.682;23.332;2023-07-13T03:41:00;95374.25;;;19.18;100.00
33155;BME280;19511;42.682;23.332;2023-07-13T03:43:26;95445.91;;;19.60;100.00
33155;BME280;19511;42.682;23.332;2023-07-13T03:45:52;95436.25;;;19.61;100.00
33155;BME280;19511;42.682;23.332;2023-07-13T03:48:20;95436.09;;;19.65;100.00
33155;BME280;19511;42.682;23.332;2023-07-13T03:50:46;95413.94;;;19.57;100.00
33155;BME280;19511;42.682;23.332;2023-07-13T03:53:12;95388.69;;;19.48;100.00
33155;BME280;19511;42.682;23.332;2023-07-13T03:55:37;95388.22;;;19.59;100.00
33155;BME280;19511;42.682;23.332;2023-07-13T03:58:32;95437.91;;;19.99;100.00
33155;BME280;19511;42.682;23.332;2023-07-13T04:00:58;95424.81;;;20.05;100.00
33155;BME280;19511;42.682;23.332;2023-07-13T04:03:24;95435.91;;;20.28;100.00
33155;BME280;19511;42.682;23.332;2023-07-13T04:05:50;95414.53;;;20.30;100.00
33155;BME280;19511;42.682;23.332;2023-07-13T04:08:16;95363.19;;;20.02;100.00
33155;BME280;19511;42.682;23.332;2023-07-13T04:10:42;95427.81;;;20.48;100.00
33155;BME280;19511;42.682;23.332;2023-07-13T04:13:08;95420.00;;;20.43;100.00
33155;BME280;19511;42.682;23.332;2023-07-13T04:15:33;95427.31;;;20.78;100.00
33155;BME280;19511;42.682;23.332;2023-07-13T04:17:59;95422.59;;;20.93;100.00
33155;BME280;19511;42.682;23.332;2023-07-13T04:20:25;95431.53;;;21.25;100.00
33155;BME280;19511;42.682;23.332;2023-07-13T04:22:52;95441.19;;;21.76;100.00
33155;BME280;19511;42.682;23.332;2023-07-13T04:25:22;95445.94;;;22.18;100.00
33155;BME280;19511;42.682;23.332;2023-07-13T04:27:47;95397.28;;;22.33;100.00
33155;BME280;19511;42.682;23.332;2023-07-13T04:30:13;95430.81;;;22.70;100.00
33155;BME280;19511;42.682;23.332;2023-07-13T04:32:38;95440.81;;;22.32;100.00
33155;BME280;19511;42.682;23.332;2023-07-13T04:35:04;95403.47;;;21.83;100.00
33155;BME280;19511;42.682;23.332;2023-07-13T04:37:30;95435.94;;;22.17;100.00
33155;BME280;19511;42.682;23.332;2023-07-13T04:39:55;95438.63;;;22.36;100.00
33155;BME280;19511;42.682;23.332;2023-07-13T04:42:21;95424.31;;;22.25;100.00
33155;BME280;19511;42.682;23.332;2023-07-13T04:44:51;95393.22;;;21.71;100.00
33155;BME280;19511;42.682;23.332;2023-07-13T04:47:17;95439.69;;;21.90;100.00
33155;BME280;19511;42.682;23.332;2023-07-13T04:49:44;95443.59;;;21.93;100.00
33155;BME280;19511;42.682;23.332;2023-07-13T04:52:10;95448.09;;;21.99;100.00
33155;BME280;19511;42.682;23.332;2023-07-13T04:54:35;95464.00;;;22.12;100.00
33155;BME280;19511;42.682;23.332;2023-07-13T04:57:03;95468.31;;;22.22;100.00
33155;BME280;19511;42.682;23.332;2023-07-13T04:59:29;95458.56;;;22.23;100.00
33155;BME280;19511;42.682;23.332;2023-07-13T05:01:55;95462.38;;;22.20;100.00
33155;BME280;19511;42.682;23.332;2023-07-13T05:04:21;95456.63;;;22.39;100.00
33155;BME280;19511;42.682;23.332;2023-07-13T05:06:46;95467.81;;;22.24;100.00
33155;BME280;19511;42.682;23.332;2023-07-13T05:09:12;95460.81;;;22.19;100.00
33155;BME280;19511;42.682;23.332;2023-07-13T05:11:38;95464.69;;;22.22;100.00
33155;BME280;19511;42.682;23.332;2023-07-13T05:14:03;95456.78;;;22.35;100.00
33155;BME280;19511;42.682;23.332;2023-07-13T05:19:01;95323.00;;;21.43;100.00
33155;BME280;19511;42.682;23.332;2023-07-13T05:21:27;95319.88;;;21.41;100.00
33155;BME280;19511;42.682;23.332;2023-07-13T05:23:56;95329.97;;;21.57;100.00
33155;BME280;19511;42.682;23.332;2023-07-13T05:26:35;95378.19;;;21.98;100.00
33155;BME280;19511;42.682;23.332;2023-07-13T05:29:02;95311.91;;;21.39;100.00
33155;BME280;19511;42.682;23.332;2023-07-13T05:31:35;95476.69;;;22.56;100.00
33155;BME280;19511;42.682;23.332;2023-07-13T05:34:04;95471.63;;;22.60;100.00
33155;BME280;19511;42.682;23.332;2023-07-13T05:36:33;95478.06;;;22.75;100.00
33155;BME280;19511;42.682;23.332;2023-07-13T05:39:16;95476.66;;;23.10;100.00
33155;BME280;19511;42.682;23.332;2023-07-13T05:41:44;95356.91;;;22.36;100.00
33155;BME280;19511;42.682;23.332;2023-07-13T05:44:17;95332.41;;;22.42;100.00
33155;BME280;19511;42.682;23.332;2023-07-13T05:46:50;95479.88;;;23.47;100.00
33155;BME280;19511;42.682;23.332;2023-07-13T05:49:25;95356.53;;;22.73;100.00
33155;BME280;19511;42.682;23.332;2023-07-13T05:51:52;95426.06;;;23.36;100.00
33155;BME280;19511;42.682;23.332;2023-07-13T05:54:18;95472.94;;;23.63;100.00
33155;BME280;19511;42.682;23.332;2023-07-13T05:56:44;95414.88;;;23.42;100.00
33155;BME280;19511;42.682;23.332;2023-07-13T05:59:18;95348.16;;;23.09;100.00
33155;BME280;19511;42.682;23.332;2023-07-13T06:01:44;95450.81;;;23.77;100.00
33155;BME280;19511;42.682;23.332;2023-07-13T06:04:13;95447.06;;;23.86;100.00
33155;BME280;19511;42.682;23.332;2023-07-13T06:06:39;95368.56;;;23.34;100.00
33155;BME280;19511;42.682;23.332;2023-07-13T06:09:07;95342.22;;;23.22;100.00
33155;BME280;19511;42.682;23.332;2023-07-13T06:11:32;95458.72;;;24.08;100.00
33155;BME280;19511;42.682;23.332;2023-07-13T06:14:01;95416.13;;;24.12;100.00
33155;BME280;19511;42.682;23.332;2023-07-13T06:16:30;95459.13;;;24.63;100.00
33155;BME280;19511;42.682;23.332;2023-07-13T06:18:55;95467.44;;;24.67;100.00
33155;BME280;19511;42.682;23.332;2023-07-13T06:21:22;95458.88;;;24.61;100.00
33155;BME280;19511;42.682;23.332;2023-07-13T06:23:50;95456.47;;;24.74;100.00
33155;BME280;19511;42.682;23.332;2023-07-13T06:26:17;95466.34;;;24.85;100.00
33155;BME280;19511;42.682;23.332;2023-07-13T06:28:43;95460.19;;;25.13;100.00
33155;BME280;19511;42.682;23.332;2023-07-13T06:31:12;95466.66;;;25.19;100.00
33155;BME280;19511;42.682;23.332;2023-07-13T06:33:45;95389.03;;;24.67;100.00
33155;BME280;19511;42.682;23.332;2023-07-13T06:36:11;95455.97;;;25.29;100.00
33155;BME280;19511;42.682;23.332;2023-07-13T06:38:43;95462.56;;;25.46;100.00
33155;BME280;19511;42.682;23.332;2023-07-13T06:41:09;95457.66;;;25.47;100.00
33155;BME280;19511;42.682;23.332;2023-07-13T06:43:39;95455.88;;;25.49;100.00
33155;BME280;19511;42.682;23.332;2023-07-13T06:46:05;95450.50;;;25.51;100.00
33155;BME280;19511;42.682;23.332;2023-07-13T06:48:31;95395.75;;;25.28;100.00
33155;BME280;19511;42.682;23.332;2023-07-13T06:50:57;95438.53;;;25.68;100.00
33155;BME280;19511;42.682;23.332;2023-07-13T06:53:29;95442.03;;;25.95;100.00
33155;BME280;19511;42.682;23.332;2023-07-13T06:55:54;95455.69;;;25.90;100.00
33155;BME280;19511;42.682;23.332;2023-07-13T06:58:20;95451.31;;;25.95;100.00
33155;BME280;19511;42.682;23.332;2023-07-13T07:00:46;95443.91;;;26.03;100.00
33155;BME280;19511;42.682;23.332;2023-07-13T07:03:15;95393.56;;;25.87;100.00
33155;BME280;19511;42.682;23.332;2023-07-13T07:05:40;95456.16;;;26.27;100.00
33155;BME280;19511;42.682;23.332;2023-07-13T07:08:06;95450.50;;;26.32;100.00
33155;BME280;19511;42.682;23.332;2023-07-13T07:10:35;95394.16;;;26.02;100.00
33155;BME280;19511;42.682;23.332;2023-07-13T07:13:01;95442.78;;;26.38;100.00
33155;BME280;19511;42.682;23.332;2023-07-13T07:15:27;95449.56;;;26.58;100.00
33155;BME280;19511;42.682;23.332;2023-07-13T07:17:53;95444.00;;;26.81;100.00
33155;BME280;19511;42.682;23.332;2023-07-13T07:20:19;95446.09;;;26.97;100.00
33155;BME280;19511;42.682;23.332;2023-07-13T07:22:45;95436.53;;;27.00;100.00
33155;BME280;19511;42.682;23.332;2023-07-13T07:25:11;95395.25;;;26.77;100.00
33155;BME280;19511;42.682;23.332;2023-07-13T07:27:41;95437.59;;;27.09;100.00
33155;BME280;19511;42.682;23.332;2023-07-13T07:30:08;95438.38;;;27.32;100.00
33155;BME280;19511;42.682;23.332;2023-07-13T07:32:37;95429.38;;;27.56;100.00
33155;BME280;19511;42.682;23.332;2023-07-13T07:35:04;95438.16;;;27.69;100.00
33155;BME280;19511;42.682;23.332;2023-07-13T07:37:29;95389.84;;;27.35;100.00
33155;BME280;19511;42.682;23.332;2023-07-13T07:39:58;95423.97;;;27.58;100.00
33155;BME280;19511;42.682;23.332;2023-07-13T07:42:24;95420.03;;;27.90;100.00
33155;BME280;19511;42.682;23.332;2023-07-13T07:44:50;95424.91;;;28.12;100.00
33155;BME280;19511;42.682;23.332;2023-07-13T07:47:15;95420.50;;;28.11;100.00
33155;BME280;19511;42.682;23.332;2023-07-13T07:49:45;95422.00;;;28.29;100.00
33155;BME280;19511;42.682;23.332;2023-07-13T07:52:10;95420.16;;;28.31;100.00
33155;BME280;19511;42.682;23.332;2023-07-13T07:54:39;95413.91;;;28.50;100.00
33155;BME280;19511;42.682;23.332;2023-07-13T07:57:08;95409.28;;;28.41;100.00
33155;BME280;19511;42.682;23.332;2023-07-13T07:59:45;95398.38;;;28.51;100.00
33155;BME280;19511;42.682;23.332;2023-07-13T08:02:17;95402.19;;;28.59;100.00
33155;BME280;19511;42.682;23.332;2023-07-13T08:04:44;95394.69;;;28.62;100.00
33155;BME280;19511;42.682;23.332;2023-07-13T08:07:14;95392.06;;;28.70;100.00
33155;BME280;19511;42.682;23.332;2023-07-13T08:09:52;95341.47;;;28.51;100.00
33155;BME280;19511;42.682;23.332;2023-07-13T08:12:21;95385.75;;;28.94;100.00
33155;BME280;19511;42.682;23.332;2023-07-13T08:14:51;95389.81;;;28.98;100.00
33155;BME280;19511;42.682;23.332;2023-07-13T08:17:23;95382.22;;;29.12;100.00
33155;BME280;19511;42.682;23.332;2023-07-13T08:19:49;95382.13;;;29.24;100.00
33155;BME280;19511;42.682;23.332;2023-07-13T08:22:14;95337.94;;;29.11;100.00
33155;BME280;19511;42.682;23.332;2023-07-13T08:24:40;95381.09;;;29.57;100.00
33155;BME280;19511;42.682;23.332;2023-07-13T08:27:07;95374.63;;;29.57;100.00
33155;BME280;19511;42.682;23.332;2023-07-13T08:29:41;95367.22;;;29.73;100.00
33155;BME280;19511;42.682;23.332;2023-07-13T08:32:07;95375.25;;;29.69;100.00
33155;BME280;19511;42.682;23.332;2023-07-13T08:34:39;95364.75;;;29.88;100.00
33155;BME280;19511;42.682;23.332;2023-07-13T08:37:05;95308.41;;;29.45;100.00
33155;BME280;19511;42.682;23.332;2023-07-13T08:39:32;95350.47;;;29.88;100.00
33155;BME280;19511;42.682;23.332;2023-07-13T08:42:43;95331.22;;;29.94;100.00
33155;BME280;19511;42.682;23.332;2023-07-13T08:45:30;95354.09;;;30.13;100.00
33155;BME280;19511;42.682;23.332;2023-07-13T08:48:04;95349.84;;;30.20;100.00
33155;BME280;19511;42.682;23.332;2023-07-13T08:50:35;95347.09;;;30.34;100.00
33155;BME280;19511;42.682;23.332;2023-07-13T08:53:05;95345.59;;;30.46;100.00
33155;BME280;19511;42.682;23.332;2023-07-13T08:58:15;95351.97;;;30.58;100.00
33155;BME280;19511;42.682;23.332;2023-07-13T09:00:52;95360.97;;;30.81;100.00
33155;BME280;19511;42.682;23.332;2023-07-13T09:03:25;95370.63;;;30.97;100.00
33155;BME280;19511;42.682;23.332;2023-07-13T09:05:59;95381.66;;;31.06;100.00
33155;BME280;19511;42.682;23.332;2023-07-13T09:08:46;95381.19;;;31.21;100.00
33155;BME280;19511;42.682;23.332;2023-07-13T09:13:55;95385.75;;;31.11;98.29
33155;BME280;19511;42.682;23.332;2023-07-13T09:16:24;95377.41;;;31.13;99.88
33155;BME280;19511;42.682;23.332;2023-07-13T09:18:52;95363.56;;;31.17;100.00
33155;BME280;19511;42.682;23.332;2023-07-13T09:21:32;95363.91;;;31.14;100.00
33155;BME280;19511;42.682;23.332;2023-07-13T09:24:28;95370.50;;;31.22;100.00
33155;BME280;19511;42.682;23.332;2023-07-13T09:26:57;95384.06;;;31.35;100.00
33155;BME280;19511;42.682;23.332;2023-07-13T09:29:29;95327.75;;;31.16;100.00
33155;BME280;19511;42.682;23.332;2023-07-13T09:32:06;95381.25;;;31.62;96.85
33155;BME280;19511;42.682;23.332;2023-07-13T09:34:37;95379.66;;;31.66;96.00
33155;BME280;19511;42.682;23.332;2023-07-13T09:37:06;95320.66;;;31.36;96.69
33155;BME280;19511;42.682;23.332;2023-07-13T09:39:40;95359.66;;;31.80;94.76
33155;BME280;19511;42.682;23.332;2023-07-13T09:42:18;95320.78;;;31.57;92.49
33155;BME280;19511;42.682;23.332;2023-07-13T09:44:58;95370.09;;;31.90;92.24
33155;BME280;19511;42.682;23.332;2023-07-13T09:47:31;95367.56;;;31.87;92.23
33155;BME280;19511;42.682;23.332;2023-07-13T09:50:06;95362.75;;;31.95;95.58
33155;BME280;19511;42.682;23.332;2023-07-13T09:52:46;95349.09;;;31.88;98.54
33155;BME280;19511;42.682;23.332;2023-07-13T09:55:31;95347.88;;;31.83;94.18
33155;BME280;19511;42.682;23.332;2023-07-13T09:58:19;95327.53;;;32.00;94.05
33155;BME280;19511;42.682;23.332;2023-07-13T10:01:02;95342.84;;;32.30;92.32
33155;BME280;19511;42.682;23.332;2023-07-13T10:03:29;95334.91;;;32.36;94.13
33155;BME280;19511;42.682;23.332;2023-07-13T10:06:25;95325.22;;;32.26;89.75
33155;BME280;19511;42.682;23.332;2023-07-13T10:08:52;95323.22;;;32.34;91.26
33155;BME280;19511;42.682;23.332;2023-07-13T10:11:28;95269.19;;;32.30;88.37
33155;BME280;19511;42.682;23.332;2023-07-13T10:14:01;95321.56;;;32.73;86.88
33155;BME280;19511;42.682;23.332;2023-07-13T10:16:34;95316.25;;;32.91;88.84
33155;BME280;19511;42.682;23.332;2023-07-13T10:19:09;95310.25;;;33.02;86.89
33155;BME280;19511;42.682;23.332;2023-07-13T10:22:18;95312.44;;;33.09;91.52
33155;BME280;19511;42.682;23.332;2023-07-13T10:24:48;95301.44;;;33.00;87.39
33155;BME280;19511;42.682;23.332;2023-07-13T10:27:39;95323.19;;;33.16;81.85
33155;BME280;19511;42.682;23.332;2023-07-13T10:30:21;95305.28;;;33.24;79.93
33155;BME280;19511;42.682;23.332;2023-07-13T10:32:51;95294.03;;;33.47;79.92
33155;BME280;19511;42.682;23.332;2023-07-13T10:35:22;95297.97;;;33.65;71.53
33155;BME280;19511;42.682;23.332;2023-07-13T10:38:07;95292.78;;;33.84;66.15
33155;BME280;19511;42.682;23.332;2023-07-13T10:40:54;95295.75;;;34.08;63.02
33155;BME280;19511;42.682;23.332;2023-07-13T10:43:29;95284.75;;;34.20;61.67
33155;BME280;19511;42.682;23.332;2023-07-13T10:45:59;95288.09;;;34.39;62.26
33155;BME280;19511;42.682;23.332;2023-07-13T10:48:34;95278.56;;;34.60;62.38
33155;BME280;19511;42.682;23.332;2023-07-13T10:51:04;95283.34;;;34.49;53.46
33155;BME280;19511;42.682;23.332;2023-07-13T10:53:37;95269.22;;;34.67;55.98
33155;BME280;19511;42.682;23.332;2023-07-13T10:58:42;95265.97;;;34.78;60.27
33155;BME280;19511;42.682;23.332;2023-07-13T11:01:14;95256.06;;;34.87;57.98
33155;BME280;19511;42.682;23.332;2023-07-13T11:03:53;95252.41;;;34.94;54.46
33155;BME280;19511;42.682;23.332;2023-07-13T11:09:00;95255.50;;;35.04;50.46
33155;BME280;19511;42.682;23.332;2023-07-13T11:11:42;95242.66;;;35.05;50.56
33155;BME280;19511;42.682;23.332;2023-07-13T11:14:37;95239.59;;;35.03;46.86
33155;BME280;19511;42.682;23.332;2023-07-13T11:22:53;95225.03;;;35.17;50.35
33155;BME280;19511;42.682;23.332;2023-07-13T11:25:33;95232.31;;;35.33;51.39
33155;BME280;19511;42.682;23.332;2023-07-13T11:33:22;95228.47;;;35.46;52.31
33155;BME280;19511;42.682;23.332;2023-07-13T11:41:15;95210.47;;;35.45;48.77
33155;BME280;19511;42.682;23.332;2023-07-13T11:43:45;95213.72;;;35.50;53.24
33155;BME280;19511;42.682;23.332;2023-07-13T11:46:22;95198.16;;;35.53;58.95
33155;BME280;19511;42.682;23.332;2023-07-13T11:48:49;95210.78;;;35.73;54.51
33155;BME280;19511;42.682;23.332;2023-07-13T11:51:32;95208.47;;;35.71;56.67
33155;BME280;19511;42.682;23.332;2023-07-13T11:54:02;95197.31;;;35.83;56.23
33155;BME280;19511;42.682;23.332;2023-07-13T11:56:32;95201.94;;;35.86;53.48
33155;BME280;19511;42.682;23.332;2023-07-13T11:59:06;95186.94;;;35.95;55.34
33155;BME280;19511;42.682;23.332;2023-07-13T12:01:33;95190.94;;;36.00;59.62
33155;BME280;19511;42.682;23.332;2023-07-13T12:04:05;95188.78;;;36.08;55.95
33155;BME280;19511;42.682;23.332;2023-07-13T12:06:35;95189.69;;;36.19;54.88
33155;BME280;19511;42.682;23.332;2023-07-13T12:09:12;95180.25;;;36.26;52.76
33155;BME280;19511;42.682;23.332;2023-07-13T12:11:43;95180.53;;;36.45;52.03
33155;BME280;19511;42.682;23.332;2023-07-13T12:14:19;95184.34;;;36.56;51.82
33155;BME280;19511;42.682;23.332;2023-07-13T12:16:46;95121.31;;;35.94;45.29
33155;BME280;19511;42.682;23.332;2023-07-13T12:19:25;95162.72;;;36.06;51.15
33155;BME280;19511;42.682;23.332;2023-07-13T12:21:54;95151.09;;;35.89;42.45
33155;BME280;19511;42.682;23.332;2023-07-13T12:24:21;95151.31;;;36.16;51.19
33155;BME280;19511;42.682;23.332;2023-07-13T12:29:17;95146.06;;;36.30;54.04
33155;BME280;19511;42.682;23.332;2023-07-13T12:31:45;95146.50;;;36.52;55.03
33155;BME280;19511;42.682;23.332;2023-07-13T12:34:16;95137.41;;;36.63;46.70
33155;BME280;19511;42.682;23.332;2023-07-13T12:36:52;95139.34;;;36.60;44.66
33155;BME280;19511;42.682;23.332;2023-07-13T12:40:05;95092.19;;;36.23;43.54
33155;BME280;19511;42.682;23.332;2023-07-13T12:45:17;95129.88;;;36.42;45.22
33155;BME280;19511;42.682;23.332;2023-07-13T12:47:47;95118.38;;;36.42;44.95
33155;BME280;19511;42.682;23.332;2023-07-13T12:50:21;95112.28;;;36.31;49.43
33155;BME280;19511;42.682;23.332;2023-07-13T12:52:56;95117.56;;;36.50;47.07
33155;BME280;19511;42.682;23.332;2023-07-13T12:55:27;95110.94;;;36.57;46.72
33155;BME280;19511;42.682;23.332;2023-07-13T12:57:58;95115.19;;;36.56;42.27
33155;BME280;19511;42.682;23.332;2023-07-13T13:02:53;95075.28;;;36.52;43.31
33155;BME280;19511;42.682;23.332;2023-07-13T13:05:19;95100.00;;;36.81;43.09
33155;BME280;19511;42.682;23.332;2023-07-13T13:07:49;95113.72;;;36.98;48.21
33155;BME280;19511;42.682;23.332;2023-07-13T13:10:18;95109.56;;;37.08;41.04
33155;BME280;19511;42.682;23.332;2023-07-13T13:12:43;95094.75;;;37.12;45.25
33155;BME280;19511;42.682;23.332;2023-07-13T13:15:10;95097.97;;;37.16;46.10
33155;BME280;19511;42.682;23.332;2023-07-13T13:17:38;95051.47;;;36.95;43.20
33155;BME280;19511;42.682;23.332;2023-07-13T13:20:21;95087.22;;;37.34;46.59
33155;BME280;19511;42.682;23.332;2023-07-13T13:22:47;95094.31;;;37.51;41.56
33155;BME280;19511;42.682;23.332;2023-07-13T13:25:16;95091.09;;;37.64;44.34
33155;BME280;19511;42.682;23.332;2023-07-13T13:27:42;95089.56;;;37.63;45.77
33155;BME280;19511;42.682;23.332;2023-07-13T13:30:12;95051.56;;;37.57;46.87
33155;BME280;19511;42.682;23.332;2023-07-13T13:32:40;95094.28;;;38.03;41.63
33155;BME280;19511;42.682;23.332;2023-07-13T13:35:16;95078.50;;;38.14;41.42
33155;BME280;19511;42.682;23.332;2023-07-13T13:37:43;95091.13;;;38.36;41.45
33155;BME280;19511;42.682;23.332;2023-07-13T13:40:21;95084.22;;;38.69;39.50